Etusivu
METAR-TAF:

METAR-TAF

Lentoasemat :

Porter County Municipal Airport

Valparaiso, Indiana, Yhdysvallat

Leveyspiiri: 41-27-11N, Pituuspiiri: 086-59-53W, korkeus merenpinnasta: 234 m

Tämänhetkinen sää

Tämä raportti tehtiin 32 minuuttia sitten, kello 10.56 UTC
Tuuli 4 kn lännestä
Lämpötila 6°C
Kosteus 81%
Ilmanpaine 1016 hPa
Näkyvyys: 16.1 km
selkeää

METAR: KVPZ 171056Z AUTO 28004KT 10SM CLR 06/03 A3000 RMK AO2 SLP163 T00610028

Aika: 06:28 (11:28 UTC)


TAF: puuttuu

Säähavainnot ja -ennusteet yli 4000 lentoasemalta (METAR- ja TAF-raportit).

Käytössä olevat sääasemat on merkitty karttaan keltaisilla ja punaisilla pisteillä.

Aseta hiiri pisteen päälle nähdäksesi sääaseman nimen.

Klikkaa sitten nähdäksesi säähavainnot ja -ennusteet.

Kartan vaihtaminen: klikkaa mustalla rastilla varustettuja vihreitä pisteitä, niin voit zoomata sisään; viivalla varustettua vihreää pistettä, niin voit zoomata ulos tai vihreitä nuolia, niin pääset viereisille kartoille.


METAR-TAF: